Main page
METAR-TAF:

METAR-TAF

Airports :

Biju Patnaik International Airport

Bhubaneswar, India

latitude: 20-14-40N, longitude: 85-49-04E, elevation: 45 m

Current weather observation

The report was made 28 minutes ago, at 17:00 UTC
Wind 2 kt from the Southwest
Temperature 27°C
Humidity 94%
Pressure 1011 hPa
Visibility: 2500 m
Few clouds at a height of 2000 ft
Scattered clouds at a height of 10000 ft
mist

METAR: VEBS 211700Z 23002KT 2500 BR FEW020 SCT100 27/26 Q1011 NOSIG

Time: 22:58 (17:28 UTC)

Forecast

The report was made 3 hours and 28 minutes ago, at 14:00 UTC
Forecast valid from 21 at 15 UTC to 21 at 24 UTC
Wind 5 kt from the South
Visibility: 4000 m
Few clouds at a height of 2000 ft
haze
Becoming
from 21 at 20 UTC to 21 at 22 UTC
Visibility: 2500 m
mist

TAF: VEBS 211400Z 2115/2124 18005KT 4000 HZ FEW020 BECMG 2120/2122 2500 BR

Weather observations and forecasts of more than 4000 airports (METAR and TAF reports).

The available stations are represented by yellow and red dots on the map.

Hover mouse over dot to see the name of the station.

Then click to see weather observations and forecasts.

To change the map : click on the green buttons with a black cross to zoom in, on the green button with a dash to zoom out, or on the green arrows for adjacent maps.


METAR-TAF: